Time;durP1;ratioP1;P1;durP2;ratioP2;P2;SDS_P1;SDS_P2;PMS_P1;PMS_P2;Temp;Humidity;BMP_temperature;BMP_pressure;BME280_temperature;BME280_humidity;BME280_pressure;Samples;Min_cycle;Max_cycle;Signal;HPM_P1;HPM_P2
2023/07/16 00:01:31;;;;;;;8.13;6.23;;;20.80;99.90;;;;;;5031106;28;20237;-65
2023/07/16 00:03:57;;;;;;;7.87;6.47;;;20.80;99.90;;;;;;5031168;28;20189;-65
2023/07/16 00:06:22;;;;;;;9.40;6.70;;;20.90;99.90;;;;;;5031243;28;20652;-65
2023/07/16 00:08:48;;;;;;;10.10;6.77;;;20.80;99.90;;;;;;5031281;28;20264;-65
2023/07/16 00:11:13;;;;;;;8.60;6.10;;;20.80;99.90;;;;;;5031071;28;20193;-65
2023/07/16 00:13:41;;;;;;;13.07;6.43;;;20.80;99.90;;;;;;5031080;28;20662;-65
2023/07/16 00:16:06;;;;;;;17.00;7.17;;;20.80;99.90;;;;;;5031438;28;20542;-65
2023/07/16 00:18:32;;;;;;;20.87;7.53;;;20.70;99.90;;;;;;5030826;28;20428;-65
2023/07/16 00:20:58;;;;;;;8.23;4.13;;;20.70;99.90;;;;;;5030894;28;20271;-65
2023/07/16 00:23:23;;;;;;;5.53;2.87;;;20.50;99.90;;;;;;5031007;28;20214;-65
2023/07/16 00:25:49;;;;;;;15.60;3.37;;;20.40;99.90;;;;;;5030968;28;20187;-65
2023/07/16 00:28:15;;;;;;;5.47;3.07;;;20.20;99.90;;;;;;5030828;28;20195;-65
2023/07/16 00:30:40;;;;;;;3.43;2.30;;;20.10;99.90;;;;;;5030853;28;20224;-65
2023/07/16 00:33:06;;;;;;;3.23;2.20;;;20.10;99.90;;;;;;5030847;28;20193;-65
2023/07/16 00:35:32;;;;;;;5.00;1.90;;;20.10;99.90;;;;;;5029513;28;20235;-65
2023/07/16 00:37:57;;;;;;;2.13;1.70;;;20.10;99.90;;;;;;5030710;28;20427;-65
2023/07/16 00:40:23;;;;;;;2.73;1.97;;;20.00;99.90;;;;;;5030648;28;20204;-65
2023/07/16 00:42:48;;;;;;;3.23;1.70;;;20.00;99.90;;;;;;5030780;28;20177;-65
2023/07/16 00:45:14;;;;;;;3.07;1.50;;;20.00;99.90;;;;;;5030603;28;20547;-65
2023/07/16 00:47:42;;;;;;;3.87;1.80;;;20.00;99.90;;;;;;5030915;28;20734;-65
2023/07/16 00:50:09;;;;;;;12.53;2.77;;;20.00;99.90;;;;;;5030754;28;20209;-65
2023/07/16 00:52:35;;;;;;;15.10;2.17;;;20.10;99.90;;;;;;5030878;28;20424;-65
2023/07/16 00:55:01;;;;;;;3.17;1.50;;;20.00;99.90;;;;;;5029575;28;20482;-65
2023/07/16 00:57:27;;;;;;;4.50;2.13;;;20.00;99.90;;;;;;5031013;28;20181;-65
2023/07/16 00:59:53;;;;;;;2.83;2.00;;;20.00;99.90;;;;;;5030953;28;20295;-65
2023/07/16 01:02:18;;;;;;;6.30;1.80;;;20.10;99.90;;;;;;5031038;28;20501;-65
2023/07/16 01:04:44;;;;;;;2.67;1.70;;;20.10;99.90;;;;;;5031017;28;20200;-65
2023/07/16 01:07:13;;;;;;;4.57;1.90;;;20.10;99.90;;;;;;5030740;28;20191;-65
2023/07/16 01:09:42;;;;;;;1.80;1.70;;;20.10;99.90;;;;;;5030880;28;20205;-65
2023/07/16 01:12:09;;;;;;;2.40;2.10;;;20.10;99.90;;;;;;5030856;28;20439;-66
2023/07/16 01:14:35;;;;;;;3.47;1.67;;;20.10;99.90;;;;;;5030662;28;20427;-65
2023/07/16 01:17:06;;;;;;;2.83;2.10;;;20.10;99.90;;;;;;5030413;28;20425;-65
2023/07/16 01:19:35;;;;;;;2.10;1.77;;;20.10;99.90;;;;;;5030125;28;20196;-65
2023/07/16 01:22:06;;;;;;;3.13;1.90;;;20.10;99.90;;;;;;5029942;28;20500;-65
2023/07/16 01:24:37;;;;;;;2.67;1.87;;;20.10;99.90;;;;;;5030196;28;20419;-66
2023/07/16 01:27:49;;;;;;;3.90;2.03;;;20.00;99.90;;;;;;5029855;28;20435;-65
2023/07/16 01:30:18;;;;;;;2.57;1.70;;;20.00;99.90;;;;;;5029524;28;20446;-65
2023/07/16 01:32:46;;;;;;;4.47;1.60;;;19.90;99.90;;;;;;5030052;28;20411;-65
2023/07/16 01:35:13;;;;;;;3.27;1.83;;;19.90;99.90;;;;;;5029618;28;20415;-65
2023/07/16 01:37:40;;;;;;;1.50;1.40;;;19.80;99.90;;;;;;5029562;28;20469;-65
2023/07/16 01:40:08;;;;;;;3.77;1.80;;;19.80;99.90;;;;;;5029614;28;20500;-65
2023/07/16 01:42:34;;;;;;;2.20;1.67;;;19.70;99.90;;;;;;5029448;28;20466;-65
2023/07/16 01:45:00;;;;;;;2.00;1.20;;;19.60;99.90;;;;;;5028062;28;20430;-65
2023/07/16 01:47:28;;;;;;;5.30;1.40;;;19.50;99.90;;;;;;5029494;28;20267;-65
2023/07/16 01:49:54;;;;;;;2.30;1.27;;;19.40;99.90;;;;;;5029117;28;20742;-65
2023/07/16 01:52:20;;;;;;;2.50;1.03;;;19.30;99.90;;;;;;5029471;28;20469;-65
2023/07/16 01:54:45;;;;;;;1.20;1.10;;;19.20;99.90;;;;;;5029276;28;20187;-65
2023/07/16 01:57:11;;;;;;;1.63;1.40;;;19.20;99.90;;;;;;5029294;28;20288;-66
2023/07/16 01:59:36;;;;;;;1.60;1.50;;;19.10;99.90;;;;;;5029127;28;20205;-65
2023/07/16 02:02:02;;;;;;;1.50;1.40;;;19.10;99.90;;;;;;5029041;28;20258;-65
2023/07/16 02:04:28;;;;;;;2.50;1.60;;;19.00;99.90;;;;;;5029253;28;20619;-65
2023/07/16 02:06:53;;;;;;;2.30;1.30;;;18.90;99.90;;;;;;5028978;28;20451;-65
2023/07/16 02:09:19;;;;;;;7.73;1.60;;;18.90;99.90;;;;;;5029289;28;20206;-65
2023/07/16 02:11:45;;;;;;;3.10;1.13;;;18.90;99.90;;;;;;5029355;28;20208;-65
2023/07/16 02:14:11;;;;;;;1.20;1.10;;;18.80;99.90;;;;;;5029488;28;20458;-64
2023/07/16 02:16:36;;;;;;;2.57;1.30;;;18.70;99.90;;;;;;5029291;28;20196;-65
2023/07/16 02:19:02;;;;;;;2.40;1.20;;;18.70;99.90;;;;;;5028871;28;20435;-65
2023/07/16 02:21:28;;;;;;;4.50;1.10;;;18.70;99.90;;;;;;5029435;28;20247;-65
2023/07/16 02:23:53;;;;;;;2.90;1.27;;;18.70;99.90;;;;;;5029642;28;20330;-65
2023/07/16 02:26:19;;;;;;;1.57;0.87;;;18.60;99.90;;;;;;5029594;28;20176;-65
2023/07/16 02:28:44;;;;;;;6.80;1.13;;;18.60;99.90;;;;;;5029518;28;20287;-65
2023/07/16 02:31:10;;;;;;;2.10;1.33;;;18.60;99.90;;;;;;5028085;28;20200;-65
2023/07/16 02:33:35;;;;;;;1.60;1.30;;;18.60;99.90;;;;;;5029596;28;20188;-65
2023/07/16 02:36:01;;;;;;;1.20;1.10;;;18.70;99.90;;;;;;5029579;28;20184;-65
2023/07/16 02:38:26;;;;;;;2.77;1.50;;;18.70;99.90;;;;;;5029305;28;20264;-65
2023/07/16 02:40:52;;;;;;;1.23;1.10;;;18.70;99.90;;;;;;5028810;28;20216;-66
2023/07/16 02:43:18;;;;;;;5.83;1.43;;;18.60;99.90;;;;;;5028714;28;20188;-65
2023/07/16 02:45:43;;;;;;;3.50;1.30;;;18.60;99.90;;;;;;5028789;28;20528;-65
2023/07/16 02:48:09;;;;;;;4.30;1.40;;;18.50;99.90;;;;;;5028841;28;20212;-65
2023/07/16 02:50:35;;;;;;;1.80;1.27;;;18.60;99.90;;;;;;5028430;28;20228;-65
2023/07/16 02:53:02;;;;;;;1.63;1.53;;;18.40;99.90;;;;;;5028663;28;20215;-65
2023/07/16 02:55:27;;;;;;;1.30;1.20;;;18.30;99.90;;;;;;5028405;28;20914;-65
2023/07/16 02:57:53;;;;;;;3.50;1.50;;;18.30;99.90;;;;;;5028344;28;20486;-65
2023/07/16 03:00:19;;;;;;;1.87;1.10;;;18.30;99.90;;;;;;5028232;28;20587;-65
2023/07/16 03:02:44;;;;;;;3.13;1.63;;;18.30;99.90;;;;;;5026720;28;20684;-65
2023/07/16 03:05:10;;;;;;;3.53;1.40;;;18.30;99.90;;;;;;5028132;28;20212;-65
2023/07/16 03:07:35;;;;;;;1.47;1.37;;;18.30;99.90;;;;;;5028290;28;20553;-65
2023/07/16 03:10:01;;;;;;;4.10;1.37;;;18.30;99.90;;;;;;5028363;28;20211;-65
2023/07/16 03:12:26;;;;;;;2.07;1.60;;;18.40;99.90;;;;;;5028237;28;20212;-65
2023/07/16 03:14:54;;;;;;;1.20;1.10;;;18.30;99.90;;;;;;5028288;28;20670;-65
2023/07/16 03:17:21;;;;;;;1.90;1.70;;;18.30;99.90;;;;;;5028121;28;20238;-65
2023/07/16 03:19:46;;;;;;;1.83;1.70;;;18.20;99.90;;;;;;5028073;28;20443;-65
2023/07/16 03:22:12;;;;;;;2.07;1.20;;;18.20;99.90;;;;;;5028003;28;21007;-65
2023/07/16 03:24:37;;;;;;;5.03;1.30;;;18.10;99.90;;;;;;5028127;28;20227;-65
2023/07/16 03:27:03;;;;;;;9.97;1.60;;;17.70;99.90;;;;;;5027984;28;20220;-65
2023/07/16 03:29:29;;;;;;;2.30;1.47;;;17.60;99.90;;;;;;5027987;28;20207;-65
2023/07/16 03:31:54;;;;;;;1.83;1.50;;;17.50;99.90;;;;;;5028190;28;20423;-65
2023/07/16 03:34:20;;;;;;;7.23;1.77;;;17.60;99.90;;;;;;5031867;28;20193;-65
2023/07/16 03:36:46;;;;;;;1.93;1.53;;;17.70;99.90;;;;;;5031552;28;20188;-65
2023/07/16 03:39:11;;;;;;;1.90;1.73;;;17.90;99.90;;;;;;5031651;28;20215;-65
2023/07/16 03:41:37;;;;;;;1.60;1.30;;;17.90;99.90;;;;;;5031532;28;20214;-65
2023/07/16 03:44:02;;;;;;;2.13;1.90;;;18.00;99.90;;;;;;5031537;28;20197;-65
2023/07/16 03:46:28;;;;;;;2.13;1.67;;;18.00;99.90;;;;;;5031447;28;20187;-65
2023/07/16 03:48:54;;;;;;;2.60;1.10;;;18.00;99.90;;;;;;5031300;28;20252;-65
2023/07/16 03:51:19;;;;;;;3.23;1.43;;;17.90;99.90;;;;;;5031387;28;20206;-65
2023/07/16 03:53:45;;;;;;;4.13;2.23;;;18.00;99.90;;;;;;5031436;28;20193;-65
2023/07/16 03:56:10;;;;;;;4.67;1.63;;;18.10;99.90;;;;;;5031477;28;20557;-65
2023/07/16 03:58:36;;;;;;;9.70;1.70;;;18.10;99.90;;;;;;5031278;28;20220;-65
2023/07/16 04:01:02;;;;;;;2.03;1.83;;;18.10;99.90;;;;;;5031144;28;20214;-65
2023/07/16 04:03:27;;;;;;;2.80;1.23;;;18.10;99.90;;;;;;5031153;28;20605;-65
2023/07/16 04:06:04;;;;;;;2.07;1.40;;;18.20;99.90;;;;;;5031491;28;20217;-65
2023/07/16 04:08:30;;;;;;;6.00;1.77;;;18.20;99.90;;;;;;5031165;28;20188;-65
2023/07/16 04:10:55;;;;;;;2.03;1.50;;;18.20;99.90;;;;;;5031207;28;20512;-65
2023/07/16 04:13:21;;;;;;;3.70;1.30;;;18.30;99.90;;;;;;5031234;28;20611;-65
2023/07/16 04:15:46;;;;;;;2.70;1.40;;;18.30;99.90;;;;;;5030987;28;20211;-65
2023/07/16 04:18:12;;;;;;;2.80;1.73;;;18.40;99.90;;;;;;5030960;28;20253;-65
2023/07/16 04:20:37;;;;;;;2.10;1.57;;;18.30;99.90;;;;;;5030854;28;20680;-65
2023/07/16 04:23:03;;;;;;;1.40;1.07;;;18.30;99.90;;;;;;5030908;28;20188;-65
2023/07/16 04:25:29;;;;;;;4.03;1.50;;;18.30;99.90;;;;;;5029439;28;20546;-66
2023/07/16 04:27:56;;;;;;;2.73;1.60;;;18.30;99.90;;;;;;5031040;28;20180;-65
2023/07/16 04:30:21;;;;;;;1.90;1.57;;;18.30;99.90;;;;;;5030815;28;20438;-65
2023/07/16 04:32:48;;;;;;;1.40;1.13;;;18.40;99.90;;;;;;5030840;28;20525;-65
2023/07/16 04:35:14;;;;;;;1.73;1.63;;;18.40;99.90;;;;;;5030600;28;20515;-65
2023/07/16 04:37:39;;;;;;;4.60;1.63;;;18.40;99.90;;;;;;5030748;28;20928;-65
2023/07/16 04:40:06;;;;;;;2.47;1.30;;;18.50;99.90;;;;;;5030602;28;20585;-65
2023/07/16 04:42:31;;;;;;;2.20;1.47;;;18.50;99.90;;;;;;5030003;28;20252;-65
2023/07/16 04:44:57;;;;;;;1.57;1.20;;;18.60;99.90;;;;;;5030571;28;21239;-65
2023/07/16 04:47:22;;;;;;;1.77;1.57;;;18.60;99.90;;;;;;5030625;28;20656;-65
2023/07/16 04:49:48;;;;;;;5.10;1.70;;;18.60;99.90;;;;;;5028783;28;20605;-65
2023/07/16 04:52:14;;;;;;;2.50;1.70;;;18.60;99.90;;;;;;5030396;28;20274;-65
2023/07/16 04:54:39;;;;;;;7.00;1.70;;;18.60;99.90;;;;;;5030259;28;20190;-65
2023/07/16 04:57:08;;;;;;;1.83;1.30;;;18.50;99.90;;;;;;5030384;28;20285;-65
2023/07/16 04:59:34;;;;;;;2.67;1.60;;;18.60;99.90;;;;;;5030273;28;20205;-65
2023/07/16 05:02:01;;;;;;;1.83;1.50;;;18.50;99.90;;;;;;5030104;28;20459;-65
2023/07/16 05:04:27;;;;;;;2.33;1.33;;;18.50;99.90;;;;;;5030153;28;20802;-66
2023/07/16 05:06:52;;;;;;;1.53;1.43;;;18.40;99.90;;;;;;5030313;28;20419;-73
2023/07/16 05:09:20;;;;;;;3.13;1.33;;;18.40;99.90;;;;;;5030414;28;20196;-73
2023/07/16 05:11:45;;;;;;;1.37;1.20;;;18.40;99.90;;;;;;5030474;28;20180;-73
2023/07/16 05:14:11;;;;;;;6.13;1.53;;;18.40;99.90;;;;;;5030072;28;20425;-73
2023/07/16 05:16:36;;;;;;;3.30;1.60;;;18.50;99.90;;;;;;5028845;28;20215;-74
2023/07/16 05:19:02;;;;;;;3.03;1.70;;;18.60;99.90;;;;;;5030143;28;20691;-74
2023/07/16 05:21:28;;;;;;;3.10;1.40;;;18.60;99.90;;;;;;5029953;28;20690;-74
2023/07/16 05:23:53;;;;;;;4.60;1.63;;;18.80;99.90;;;;;;5012305;28;20734;-74
2023/07/16 05:26:19;;;;;;;1.97;1.50;;;18.90;99.90;;;;;;5030005;28;20187;-74
2023/07/16 05:28:44;;;;;;;10.20;1.47;;;19.00;99.90;;;;;;5028586;28;20216;-74
2023/07/16 05:31:10;;;;;;;7.23;1.87;;;19.00;99.90;;;;;;5029848;28;20180;-74
2023/07/16 05:33:35;;;;;;;9.90;2.23;;;19.00;99.90;;;;;;5028614;28;20419;-74
2023/07/16 05:36:01;;;;;;;3.13;1.63;;;19.00;99.90;;;;;;5029877;28;20275;-74
2023/07/16 05:38:27;;;;;;;1.50;1.30;;;19.00;99.90;;;;;;5011983;28;20189;-74
2023/07/16 05:40:52;;;;;;;2.50;1.60;;;18.90;99.90;;;;;;5029727;28;20188;-74
2023/07/16 05:43:18;;;;;;;4.20;1.90;;;18.90;99.90;;;;;;5028326;28;20193;-74
2023/07/16 05:45:44;;;;;;;5.13;1.40;;;18.90;99.90;;;;;;5029656;28;20188;-75
2023/07/16 05:48:09;;;;;;;1.73;1.20;;;18.90;99.90;;;;;;5028333;28;20185;-75
2023/07/16 05:50:35;;;;;;;3.37;1.97;;;18.80;99.90;;;;;;5029422;28;20303;-75
2023/07/16 05:53:01;;;;;;;3.20;2.23;;;18.80;99.90;;;;;;5028391;28;20652;-75
2023/07/16 05:55:26;;;;;;;3.60;1.93;;;18.80;99.90;;;;;;5027317;28;20193;-75
2023/07/16 05:57:52;;;;;;;2.53;1.70;;;18.80;99.90;;;;;;5027974;28;20218;-75
2023/07/16 06:00:17;;;;;;;3.93;1.70;;;18.80;99.90;;;;;;5027617;28;20278;-75
2023/07/16 06:02:43;;;;;;;2.03;1.30;;;18.80;99.90;;;;;;5027882;28;20238;-75
2023/07/16 06:05:09;;;;;;;2.60;1.30;;;18.80;99.90;;;;;;5029143;28;20185;-75
2023/07/16 06:07:34;;;;;;;4.27;2.07;;;18.80;99.90;;;;;;5027774;28;20434;-75
2023/07/16 06:10:00;;;;;;;3.43;1.73;;;18.80;99.90;;;;;;5027603;28;20218;-75
2023/07/16 06:12:26;;;;;;;1.57;1.30;;;18.80;99.90;;;;;;5027666;28;20196;-75
2023/07/16 06:14:51;;;;;;;1.90;1.27;;;18.80;99.90;;;;;;5028931;28;20195;-75
2023/07/16 06:17:17;;;;;;;6.10;1.77;;;18.70;99.90;;;;;;5027756;28;20227;-75
2023/07/16 06:19:43;;;;;;;1.40;1.30;;;18.80;99.90;;;;;;5027431;28;20231;-75
2023/07/16 06:22:08;;;;;;;8.20;2.07;;;18.80;99.90;;;;;;5011095;28;20243;-76
2023/07/16 06:24:34;;;;;;;5.30;2.47;;;18.80;99.90;;;;;;5029211;28;20534;-75
2023/07/16 06:27:00;;;;;;;1.80;1.57;;;18.80;99.90;;;;;;5027493;28;20600;-75
2023/07/16 06:29:26;;;;;;;3.00;1.87;;;18.80;99.90;;;;;;5028698;28;20530;-75
2023/07/16 06:31:58;;;;;;;5.07;1.70;;;18.70;99.90;;;;;;5011077;28;20610;-75
2023/07/16 06:34:27;;;;;;;2.23;1.50;;;18.70;99.90;;;;;;5028717;28;20185;-75
2023/07/16 06:36:52;;;;;;;4.10;1.63;;;18.60;99.90;;;;;;5027306;28;20949;-75
2023/07/16 06:39:18;;;;;;;4.20;1.97;;;18.70;99.90;;;;;;5027102;28;20447;-74
2023/07/16 06:41:44;;;;;;;4.80;1.53;;;18.70;99.90;;;;;;5027270;28;20463;-74
2023/07/16 06:44:09;;;;;;;8.70;2.47;;;18.70;99.90;;;;;;5027108;28;20191;-74
2023/07/16 06:46:35;;;;;;;4.47;1.57;;;18.60;99.90;;;;;;5027225;28;20199;-74
2023/07/16 06:49:01;;;;;;;5.40;1.83;;;18.60;99.90;;;;;;5027219;28;20680;-74
2023/07/16 06:51:28;;;;;;;5.23;1.70;;;18.70;99.90;;;;;;5027035;28;20200;-74
2023/07/16 06:53:54;;;;;;;11.13;2.13;;;18.80;99.90;;;;;;5026974;28;20192;-74
2023/07/16 06:56:19;;;;;;;3.47;1.50;;;18.90;99.90;;;;;;5028292;28;20431;-74
2023/07/16 06:58:45;;;;;;;3.87;1.23;;;19.00;99.90;;;;;;5010622;28;20188;-74
2023/07/16 07:01:10;;;;;;;4.60;1.97;;;19.20;99.90;;;;;;5027048;28;20732;-74
2023/07/16 07:03:36;;;;;;;3.93;1.57;;;19.20;99.90;;;;;;5027274;28;20196;-75
2023/07/16 07:06:03;;;;;;;9.53;2.10;;;19.40;99.90;;;;;;5028873;28;20204;-74
2023/07/16 07:08:29;;;;;;;18.57;1.77;;;19.60;99.90;;;;;;5032335;28;20172;-75
2023/07/16 07:10:54;;;;;;;6.37;1.90;;;19.60;99.90;;;;;;5032463;28;20422;-75
2023/07/16 07:13:20;;;;;;;8.17;1.83;;;19.60;99.90;;;;;;5032960;28;20242;-74
2023/07/16 07:15:46;;;;;;;2.53;1.57;;;19.70;99.90;;;;;;5030627;28;20192;-75
2023/07/16 07:18:11;;;;;;;5.90;2.07;;;19.70;99.90;;;;;;5030005;28;20287;-75
2023/07/16 07:20:37;;;;;;;4.83;1.90;;;19.80;99.90;;;;;;5030101;28;20228;-75
2023/07/16 07:23:04;;;;;;;1.77;1.50;;;19.90;99.90;;;;;;5030030;28;20269;-75
2023/07/16 07:25:30;;;;;;;4.03;1.87;;;20.10;99.90;;;;;;5013733;28;20200;-75
2023/07/16 07:27:56;;;;;;;4.50;1.83;;;20.40;99.90;;;;;;5030137;28;20419;-75
2023/07/16 07:30:21;;;;;;;7.43;1.43;;;20.60;99.90;;;;;;5013718;28;20215;-75
2023/07/16 07:32:47;;;;;;;6.50;2.00;;;20.70;99.90;;;;;;5030109;28;20196;-75
2023/07/16 07:35:13;;;;;;;2.83;1.60;;;20.70;99.90;;;;;;5013957;28;20280;-75
2023/07/16 07:37:38;;;;;;;3.97;2.10;;;20.70;99.90;;;;;;5031889;28;20610;-74
2023/07/16 07:40:04;;;;;;;9.10;1.70;;;20.70;99.90;;;;;;5030488;28;20208;-74
2023/07/16 07:42:30;;;;;;;2.50;1.70;;;20.70;99.90;;;;;;5031946;28;20258;-75
2023/07/16 07:44:56;;;;;;;2.93;1.33;;;20.50;99.90;;;;;;5030643;28;20900;-75
2023/07/16 07:47:21;;;;;;;2.17;1.37;;;20.60;99.90;;;;;;5031672;28;20533;-74
2023/07/16 07:49:47;;;;;;;4.60;2.13;;;20.70;99.90;;;;;;5013412;28;20247;-75
2023/07/16 07:52:13;;;;;;;7.63;1.83;;;20.80;99.90;;;;;;5030170;28;20196;-73
2023/07/16 07:54:38;;;;;;;3.40;1.40;;;21.20;99.90;;;;;;5031450;28;20188;-75
2023/07/16 07:57:04;;;;;;;3.63;1.80;;;21.40;99.90;;;;;;5029717;28;20717;-76
2023/07/16 07:59:31;;;;;;;3.57;1.77;;;21.40;99.90;;;;;;5029506;28;20206;-75
2023/07/16 08:01:58;;;;;;;3.20;2.13;;;21.50;99.90;;;;;;5029349;28;20837;-75
2023/07/16 08:04:24;;;;;;;7.50;1.57;;;21.40;99.90;;;;;;5030595;28;20437;-74
2023/07/16 08:06:51;;;;;;;2.17;1.80;;;21.40;99.90;;;;;;5030571;28;20466;-74
2023/07/16 08:09:16;;;;;;;5.90;1.40;;;21.40;99.90;;;;;;5030845;28;20970;-75
2023/07/16 08:11:42;;;;;;;1.97;1.57;;;21.40;99.90;;;;;;5029469;28;20433;-75
2023/07/16 08:14:07;;;;;;;6.47;2.03;;;21.40;99.90;;;;;;5029264;28;20278;-75
2023/07/16 08:16:33;;;;;;;3.50;1.87;;;21.60;99.90;;;;;;5030311;28;20764;-73
2023/07/16 08:18:59;;;;;;;2.00;1.57;;;21.60;99.90;;;;;;5011880;28;20901;-75
2023/07/16 08:21:24;;;;;;;4.37;1.87;;;21.40;99.90;;;;;;5029057;28;20572;-75
2023/07/16 08:23:50;;;;;;;4.80;1.90;;;21.50;99.90;;;;;;5012509;28;20312;-75
2023/07/16 08:26:19;;;;;;;4.63;1.80;;;21.70;99.90;;;;;;5028915;28;20182;-74
2023/07/16 08:28:45;;;;;;;7.97;1.60;;;21.70;99.90;;;;;;5030211;28;20414;-75
2023/07/16 08:31:12;;;;;;;3.30;2.17;;;21.70;99.90;;;;;;5030392;28;20452;-74
2023/07/16 08:33:38;;;;;;;5.37;2.37;;;21.70;99.90;;;;;;5011918;28;20526;-74
2023/07/16 08:36:04;;;;;;;2.60;1.50;;;21.80;99.90;;;;;;5028169;28;20455;-75
2023/07/16 08:38:30;;;;;;;2.90;1.67;;;22.00;99.90;;;;;;5028910;28;20454;-74
2023/07/16 08:40:55;;;;;;;2.07;1.87;;;22.20;99.90;;;;;;5029039;28;20192;-75
2023/07/16 08:43:22;;;;;;;3.37;1.40;;;22.30;99.90;;;;;;5028977;28;20181;-76
2023/07/16 08:45:49;;;;;;;7.97;2.20;;;22.20;99.90;;;;;;5030608;28;20833;-75
2023/07/16 08:48:18;;;;;;;3.20;1.33;;;22.10;99.90;;;;;;5030093;28;20493;-74
2023/07/16 08:50:47;;;;;;;3.33;1.37;;;22.00;99.90;;;;;;5028491;28;20493;-75
2023/07/16 08:53:16;;;;;;;3.07;1.37;;;22.10;99.90;;;;;;5030226;28;20464;-75
2023/07/16 08:55:45;;;;;;;6.70;2.77;;;22.50;99.90;;;;;;5028824;28;20419;-74
2023/07/16 08:58:16;;;;;;;8.43;2.90;;;23.00;99.90;;;;;;5030037;28;20926;-75
2023/07/16 09:00:43;;;;;;;5.37;1.60;;;23.10;99.90;;;;;;5028170;28;20845;-71
2023/07/16 09:03:16;;;;;;;3.10;1.80;;;22.90;99.90;;;;;;5028239;28;20438;-71
2023/07/16 09:05:42;;;;;;;2.70;1.90;;;22.70;99.90;;;;;;5028560;28;20417;-71
2023/07/16 09:08:08;;;;;;;5.50;2.23;;;22.90;99.90;;;;;;5029347;28;20501;-70
2023/07/16 09:10:34;;;;;;;3.63;1.87;;;23.30;99.90;;;;;;5029147;28;20527;-71
2023/07/16 09:13:00;;;;;;;5.07;2.03;;;23.20;99.90;;;;;;5029465;28;20184;-71
2023/07/16 09:15:27;;;;;;;4.87;1.77;;;23.20;99.90;;;;;;5027121;28;20430;-71
2023/07/16 09:17:54;;;;;;;4.60;2.00;;;23.30;99.90;;;;;;5028478;28;20563;-71
2023/07/16 09:20:23;;;;;;;10.87;2.40;;;23.20;99.90;;;;;;5028224;28;20433;-71
2023/07/16 09:22:49;;;;;;;5.10;2.27;;;23.20;99.90;;;;;;5026532;28;20460;-71
2023/07/16 09:25:15;;;;;;;3.00;1.60;;;23.10;99.90;;;;;;5028392;28;20430;-71
2023/07/16 09:27:41;;;;;;;3.30;1.93;;;23.10;99.90;;;;;;5028271;28;20425;-72
2023/07/16 09:30:14;;;;;;;4.07;2.03;;;23.10;99.90;;;;;;5028058;28;20585;-71
2023/07/16 09:32:39;;;;;;;4.20;2.40;;;22.90;99.90;;;;;;5028160;28;20659;-71
2023/07/16 09:35:13;;;;;;;5.17;1.97;;;22.90;99.90;;;;;;5025712;28;20438;-71
2023/07/16 09:37:39;;;;;;;3.63;1.70;;;22.80;99.90;;;;;;5028360;28;20559;-71
2023/07/16 09:40:10;;;;;;;4.90;2.13;;;23.40;99.90;;;;;;5028092;28;20958;-71
2023/07/16 09:42:40;;;;;;;4.60;1.60;;;24.00;99.90;;;;;;5026570;28;20897;-71
2023/07/16 09:45:10;;;;;;;3.00;2.03;;;24.60;99.90;;;;;;5026770;28;20476;-71
2023/07/16 09:47:35;;;;;;;3.17;1.80;;;24.90;98.50;;;;;;5028190;28;20484;-70
2023/07/16 09:50:04;;;;;;;4.03;2.10;;;25.10;99.90;;;;;;5028046;28;20824;-70
2023/07/16 09:52:32;;;;;;;4.10;1.60;;;25.60;98.00;;;;;;5028303;28;20259;-70
2023/07/16 09:55:02;;;;;;;3.43;1.73;;;25.90;94.00;;;;;;5028046;28;20526;-70
2023/07/16 09:57:34;;;;;;;4.90;2.10;;;26.10;96.50;;;;;;5027970;28;20429;-70
2023/07/16 10:00:04;;;;;;;4.13;1.87;;;26.40;92.20;;;;;;5027742;28;20489;-71
2023/07/16 10:02:35;;;;;;;4.90;1.80;;;26.60;93.30;;;;;;5027778;28;20931;-71
2023/07/16 10:05:18;;;;;;;3.80;2.33;;;26.90;92.60;;;;;;5026431;28;20424;-68
2023/07/16 10:07:51;;;;;;;3.00;1.50;;;26.70;92.00;;;;;;5028404;28;20414;-69
2023/07/16 10:10:17;;;;;;;3.30;1.80;;;26.60;91.80;;;;;;5027729;28;20562;-70
2023/07/16 10:12:54;;;;;;;5.70;1.93;;;26.10;91.20;;;;;;5028222;28;20427;-68
2023/07/16 10:15:26;;;;;;;3.00;1.63;;;26.20;94.20;;;;;;5027934;28;20537;-69
2023/07/16 10:17:51;;;;;;;6.13;1.80;;;26.20;93.10;;;;;;5026097;28;21013;-69
2023/07/16 10:20:27;;;;;;;2.63;1.33;;;26.00;91.00;;;;;;5027307;28;20448;-69
2023/07/16 10:22:52;;;;;;;2.63;1.40;;;25.90;92.80;;;;;;5027311;28;20264;-70
2023/07/16 10:25:18;;;;;;;7.10;1.97;;;25.60;91.50;;;;;;5025966;28;20427;-69
2023/07/16 10:27:45;;;;;;;4.33;2.00;;;25.30;91.70;;;;;;5027758;28;20251;-70
2023/07/16 10:30:11;;;;;;;3.60;2.07;;;25.50;93.40;;;;;;5027603;28;20612;-68
2023/07/16 10:32:37;;;;;;;3.10;1.67;;;25.80;96.00;;;;;;5027180;28;20430;-72
2023/07/16 10:35:04;;;;;;;8.47;1.77;;;25.90;96.20;;;;;;5027129;28;20504;-73
2023/07/16 10:37:30;;;;;;;5.53;1.97;;;25.70;94.00;;;;;;5027142;28;20923;-69
2023/07/16 10:39:59;;;;;;;7.27;2.37;;;25.80;94.70;;;;;;5008703;28;20462;-67
2023/07/16 10:42:26;;;;;;;2.30;1.70;;;26.00;94.20;;;;;;5027047;28;20211;-67
2023/07/16 10:44:53;;;;;;;3.93;1.70;;;26.00;94.20;;;;;;5027087;28;20437;-68
2023/07/16 10:47:54;;;;;;;3.40;1.77;;;26.10;94.50;;;;;;5027028;28;20419;-69
2023/07/16 10:50:23;;;;;;;3.23;1.70;;;26.10;93.80;;;;;;5027013;28;20980;-68
2023/07/16 10:52:53;;;;;;;10.13;1.80;;;25.90;94.30;;;;;;5027000;28;20431;-70
2023/07/16 10:55:19;;;;;;;2.40;1.93;;;25.90;96.20;;;;;;5025600;28;20419;-71
2023/07/16 10:57:48;;;;;;;3.57;1.97;;;25.70;94.70;;;;;;5027289;28;20489;-68
2023/07/16 11:00:15;;;;;;;4.77;1.70;;;25.90;94.90;;;;;;5026654;28;20246;-68
2023/07/16 11:02:41;;;;;;;2.10;1.90;;;26.00;95.10;;;;;;5026882;28;20498;-67
2023/07/16 11:05:13;;;;;;;3.43;1.30;;;26.30;94.70;;;;;;5027095;28;20533;-68
2023/07/16 11:07:46;;;;;;;3.40;1.70;;;26.40;93.60;;;;;;5027215;28;20656;-68
2023/07/16 11:10:11;;;;;;;2.80;1.47;;;26.70;93.80;;;;;;5027409;28;20434;-69
2023/07/16 11:12:37;;;;;;;3.50;1.70;;;26.60;90.80;;;;;;5027105;28;20872;-69
2023/07/16 11:15:03;;;;;;;2.67;1.60;;;26.60;92.50;;;;;;5026832;28;20263;-68
2023/07/16 11:17:29;;;;;;;4.57;1.80;;;26.50;92.00;;;;;;5026720;28;20263;-68
2023/07/16 11:19:55;;;;;;;3.83;1.43;;;26.30;91.80;;;;;;5026593;28;20574;-68
2023/07/16 11:22:26;;;;;;;2.50;1.90;;;26.10;91.40;;;;;;5026637;28;20289;-69
2023/07/16 11:24:52;;;;;;;4.83;1.87;;;25.80;93.60;;;;;;5027069;28;21222;-68
2023/07/16 11:27:26;;;;;;;2.53;1.70;;;25.70;93.50;;;;;;5025168;28;20419;-69
2023/07/16 11:29:56;;;;;;;2.90;1.60;;;25.90;93.80;;;;;;5025046;28;20806;-71
2023/07/16 11:32:34;;;;;;;4.80;1.90;;;25.90;94.90;;;;;;5026727;28;20431;-72
2023/07/16 11:35:07;;;;;;;2.70;2.03;;;25.90;96.20;;;;;;5026661;28;20490;-71
2023/07/16 11:37:35;;;;;;;6.70;2.00;;;26.00;95.70;;;;;;5025029;28;20419;-70
2023/07/16 11:40:04;;;;;;;2.20;1.87;;;26.00;94.10;;;;;;5025218;28;21024;-70
2023/07/16 11:42:31;;;;;;;3.33;1.70;;;25.90;93.80;;;;;;5027126;28;20474;-71
2023/07/16 11:44:57;;;;;;;2.70;1.90;;;25.80;94.60;;;;;;5026759;28;21285;-70
2023/07/16 11:47:23;;;;;;;4.70;1.70;;;25.80;93.90;;;;;;5024438;28;20578;-70
2023/07/16 11:49:49;;;;;;;4.70;2.33;;;25.90;94.70;;;;;;5006075;28;20454;-69
2023/07/16 11:52:28;;;;;;;3.73;1.77;;;25.90;92.80;;;;;;5024543;28;20209;-70
2023/07/16 11:54:56;;;;;;;4.97;2.07;;;25.80;94.70;;;;;;5026447;28;20650;-69
2023/07/16 11:57:22;;;;;;;1.97;1.50;;;25.80;93.70;;;;;;5027871;28;20449;-70
2023/07/16 11:59:48;;;;;;;1.97;1.63;;;25.70;94.10;;;;;;5028493;28;20466;-70
2023/07/16 12:02:14;;;;;;;3.97;2.00;;;25.70;96.80;;;;;;5029123;28;21048;-70
2023/07/16 12:04:39;;;;;;;3.40;1.67;;;25.80;94.70;;;;;;5028893;28;20177;-70
2023/07/16 12:07:05;;;;;;;3.10;2.00;;;26.10;96.20;;;;;;5028968;28;20461;-70
2023/07/16 12:09:31;;;;;;;6.30;1.63;;;26.30;93.40;;;;;;5026473;28;20200;-69
2023/07/16 12:11:57;;;;;;;3.40;2.07;;;26.30;93.90;;;;;;5027969;28;20566;-70
2023/07/16 12:14:22;;;;;;;4.40;2.10;;;26.50;92.80;;;;;;5028053;28;20311;-70
2023/07/16 12:16:48;;;;;;;4.03;1.47;;;26.60;91.80;;;;;;5028004;28;20188;-70
2023/07/16 12:19:14;;;;;;;2.73;1.70;;;26.70;90.50;;;;;;5028069;28;20788;-71
2023/07/16 12:21:39;;;;;;;3.23;1.50;;;26.70;92.10;;;;;;5026439;28;20625;-69
2023/07/16 12:24:05;;;;;;;3.47;1.80;;;26.90;92.80;;;;;;5026468;28;20208;-70
2023/07/16 12:26:31;;;;;;;6.30;1.60;;;26.90;91.80;;;;;;5027764;28;20552;-70
2023/07/16 12:28:57;;;;;;;2.30;1.77;;;26.90;91.20;;;;;;5030326;28;20423;-70
2023/07/16 12:31:22;;;;;;;2.70;1.70;;;27.00;91.90;;;;;;5030382;28;20648;-70
2023/07/16 12:33:48;;;;;;;5.43;2.20;;;26.80;91.20;;;;;;5029897;28;20594;-70
2023/07/16 12:36:15;;;;;;;3.73;1.80;;;26.90;91.90;;;;;;5029823;28;20184;-70
2023/07/16 12:38:41;;;;;;;2.47;1.53;;;27.00;92.30;;;;;;5029717;28;20189;-70
2023/07/16 12:41:07;;;;;;;9.33;1.83;;;27.10;91.90;;;;;;5029504;28;20424;-70
2023/07/16 12:43:34;;;;;;;3.77;2.00;;;27.20;92.60;;;;;;5029455;28;20910;-70